createdAt,value
2022-08-18T00:02:15.867Z,4.75
2022-08-18T00:04:48.674Z,5.00
2022-08-18T00:07:19.398Z,5.15
2022-08-18T00:09:48.757Z,5.00
2022-08-18T00:12:18.083Z,5.10
2022-08-18T00:14:45.846Z,4.38
2022-08-18T00:17:13.975Z,4.47
2022-08-18T00:19:46.151Z,4.80
2022-08-18T00:22:16.158Z,5.03
2022-08-18T00:24:48.316Z,4.50
2022-08-18T00:27:21.593Z,4.85
2022-08-18T00:29:49.989Z,4.40
2022-08-18T00:32:19.884Z,4.80
2022-08-18T00:34:47.527Z,4.53
2022-08-18T00:37:15.163Z,4.25
2022-08-18T00:39:46.491Z,4.72
2022-08-18T00:42:29.122Z,4.63
2022-08-18T00:44:59.515Z,4.53
2022-08-18T00:47:41.274Z,4.80
2022-08-18T00:50:15.365Z,4.22
2022-08-18T00:52:47.213Z,4.15
2022-08-18T00:55:15.111Z,4.47
2022-08-18T00:57:44.168Z,4.13
2022-08-18T01:00:13.820Z,4.20
2022-08-18T01:02:43.903Z,4.18
2022-08-18T01:05:13.484Z,3.85
2022-08-18T01:07:43.850Z,4.00
2022-08-18T01:10:16.069Z,4.00
2022-08-18T01:12:46.937Z,3.70
2022-08-18T01:15:28.517Z,4.10
2022-08-18T01:18:15.752Z,4.00
2022-08-18T01:21:03.827Z,4.20
2022-08-18T01:23:32.902Z,3.90
2022-08-18T01:26:02.354Z,3.97
2022-08-18T01:28:30.194Z,3.33
2022-08-18T01:30:58.348Z,3.90
2022-08-18T01:33:30.053Z,3.72
2022-08-18T01:35:58.202Z,4.00
2022-08-18T01:38:26.277Z,3.50
2022-08-18T01:41:27.231Z,3.63
2022-08-18T01:43:43.062Z,3.45
2022-08-18T01:46:10.685Z,3.28
2022-08-18T01:48:38.499Z,3.53
2022-08-18T01:51:06.726Z,3.38
2022-08-18T01:53:34.337Z,3.53
2022-08-18T01:56:05.268Z,3.83
2022-08-18T01:58:32.959Z,3.20
2022-08-18T02:01:01.606Z,3.00
2022-08-18T02:03:30.617Z,3.33
2022-08-18T02:06:01.710Z,3.30
2022-08-18T02:08:29.382Z,3.47
2022-08-18T02:10:58.252Z,3.20
2022-08-18T02:13:27.246Z,3.50
2022-08-18T02:15:54.866Z,3.47
2022-08-18T02:18:45.266Z,3.10
2022-08-18T02:21:13.810Z,3.47
2022-08-18T02:23:41.625Z,3.40
2022-08-18T02:26:21.237Z,3.58
2022-08-18T02:28:50.189Z,3.40
2022-08-18T02:31:19.259Z,3.30
2022-08-18T02:33:51.849Z,3.38
2022-08-18T02:36:20.445Z,3.30
2022-08-18T02:38:54.859Z,3.05
2022-08-18T02:41:29.705Z,3.05
2022-08-18T02:43:59.029Z,3.10
2022-08-18T02:46:30.060Z,3.15
2022-08-18T02:48:58.822Z,3.30
2022-08-18T02:51:26.541Z,3.28
2022-08-18T02:53:54.364Z,3.28
2022-08-18T02:56:32.707Z,3.10
2022-08-18T02:59:10.858Z,3.15
2022-08-18T03:01:40.758Z,3.80
2022-08-18T03:04:09.585Z,3.10
2022-08-18T03:06:37.950Z,3.20
2022-08-18T03:09:05.726Z,3.30
2022-08-18T03:11:33.373Z,3.20
2022-08-18T03:14:01.344Z,3.22
2022-08-18T03:16:31.398Z,3.17
2022-08-18T03:18:59.109Z,2.90
2022-08-18T03:21:28.037Z,3.60
2022-08-18T03:24:00.859Z,3.50
2022-08-18T03:26:30.308Z,3.30
2022-08-18T03:28:58.400Z,3.35
2022-08-18T03:31:27.731Z,3.28
2022-08-18T03:33:59.375Z,3.28
2022-08-18T03:36:31.792Z,3.45
2022-08-18T03:38:59.425Z,3.42
2022-08-18T03:41:56.790Z,3.15
2022-08-18T03:44:15.641Z,3.60
2022-08-18T03:46:43.453Z,3.72
2022-08-18T03:49:12.729Z,3.33
2022-08-18T03:51:43.461Z,3.47
2022-08-18T03:54:13.264Z,3.63
2022-08-18T03:56:41.180Z,3.63
2022-08-18T03:59:27.607Z,3.28
2022-08-18T04:01:56.004Z,3.28
2022-08-18T04:04:43.633Z,3.50
2022-08-18T04:07:14.268Z,3.75
2022-08-18T04:09:42.952Z,3.58
2022-08-18T04:12:15.382Z,3.60
2022-08-18T04:14:46.464Z,3.60
2022-08-18T04:17:14.073Z,3.78
2022-08-18T04:19:43.118Z,3.13
2022-08-18T04:22:11.259Z,3.45
2022-08-18T04:24:45.801Z,4.00
2022-08-18T04:27:13.436Z,3.47
2022-08-18T04:29:41.121Z,3.70
2022-08-18T04:32:08.766Z,3.30
2022-08-18T04:34:36.432Z,3.47
2022-08-18T04:37:05.544Z,3.67
2022-08-18T04:39:33.214Z,3.75
2022-08-18T04:42:03.551Z,3.60
2022-08-18T04:44:31.757Z,3.50
2022-08-18T04:46:59.418Z,3.53
2022-08-18T04:49:27.877Z,3.60
2022-08-18T04:52:34.360Z,3.45
2022-08-18T04:55:03.541Z,3.88
2022-08-18T04:57:33.820Z,3.95
2022-08-18T05:00:02.781Z,3.63
2022-08-18T05:02:33.011Z,3.53
2022-08-18T05:05:01.264Z,3.70
2022-08-18T05:07:29.080Z,3.60
2022-08-18T05:09:56.886Z,3.78
2022-08-18T05:12:26.723Z,3.63
2022-08-18T05:14:56.680Z,4.10
2022-08-18T05:17:30.239Z,3.90
2022-08-18T05:19:58.745Z,4.10
2022-08-18T05:22:30.687Z,3.92
2022-08-18T05:24:59.878Z,3.72
2022-08-18T05:27:32.809Z,3.95
2022-08-18T05:30:00.409Z,3.70
2022-08-18T05:32:47.402Z,3.92
2022-08-18T05:35:19.528Z,3.70
2022-08-18T05:37:53.320Z,3.92
2022-08-18T05:40:21.857Z,4.07
2022-08-18T05:42:51.167Z,4.47
2022-08-18T05:45:19.473Z,4.30
2022-08-18T05:47:47.113Z,4.70
2022-08-18T05:50:16.570Z,5.03
2022-08-18T05:52:45.878Z,5.25
2022-08-18T05:55:32.518Z,5.13
2022-08-18T05:58:04.338Z,4.90
2022-08-18T06:00:32.247Z,5.32
2022-08-18T06:03:02.135Z,4.78
2022-08-18T06:05:31.970Z,5.65
2022-08-18T06:08:00.734Z,5.40
2022-08-18T06:10:28.422Z,5.50
2022-08-18T06:12:58.113Z,5.20
2022-08-18T06:15:43.645Z,5.47
2022-08-18T06:18:24.066Z,5.63
2022-08-18T06:21:17.298Z,5.45
2022-08-18T06:23:52.829Z,5.72
2022-08-18T06:26:23.248Z,5.47
2022-08-18T06:28:59.037Z,5.60
2022-08-18T06:31:33.999Z,5.88
2022-08-18T06:34:09.289Z,6.20
2022-08-18T06:36:40.650Z,5.80
2022-08-18T06:39:12.938Z,5.80
2022-08-18T06:41:43.845Z,5.30
2022-08-18T06:44:12.870Z,5.63
2022-08-18T06:46:46.793Z,5.63
2022-08-18T06:49:18.653Z,5.07
2022-08-18T06:51:46.254Z,5.65
2022-08-18T06:54:27.914Z,4.57
2022-08-18T06:56:56.121Z,5.00
2022-08-18T06:59:25.281Z,5.00
2022-08-18T07:01:55.700Z,5.30
2022-08-18T07:04:42.328Z,4.60
2022-08-18T07:07:21.400Z,5.10
2022-08-18T07:09:49.508Z,4.72
2022-08-18T07:12:23.323Z,4.70
2022-08-18T07:14:53.141Z,4.80
2022-08-18T07:17:42.339Z,4.72
2022-08-18T07:20:20.263Z,5.25
2022-08-18T07:22:56.065Z,4.50
2022-08-18T07:25:26.453Z,5.00
2022-08-18T07:27:56.199Z,4.47
2022-08-18T07:30:33.410Z,4.50
2022-08-18T07:33:08.099Z,4.90
2022-08-18T07:35:39.095Z,4.65
2022-08-18T07:38:41.045Z,4.50
2022-08-18T07:41:00.493Z,4.85
2022-08-18T07:43:32.118Z,4.68
2022-08-18T07:46:03.925Z,4.82
2022-08-18T07:48:38.516Z,4.47
2022-08-18T07:51:10.201Z,4.40
2022-08-18T07:53:55.817Z,4.50
2022-08-18T07:56:29.970Z,4.38
2022-08-18T07:58:59.699Z,4.30
2022-08-18T08:01:33.838Z,4.57
2022-08-18T08:04:25.997Z,4.13
2022-08-18T08:07:20.805Z,4.60
2022-08-18T08:09:51.640Z,4.10
2022-08-18T08:12:26.334Z,4.13
2022-08-18T08:14:58.163Z,4.07
2022-08-18T08:17:26.733Z,4.47
2022-08-18T08:20:08.793Z,4.47
2022-08-18T08:22:39.991Z,4.10
2022-08-18T08:25:35.053Z,4.10
2022-08-18T08:28:09.226Z,3.95
2022-08-18T08:30:38.989Z,4.03
2022-08-18T08:33:13.149Z,4.38
2022-08-18T08:35:49.339Z,4.15
2022-08-18T08:38:39.207Z,4.38
2022-08-18T08:41:10.457Z,4.20
2022-08-18T08:43:41.051Z,4.40
2022-08-18T08:46:11.154Z,4.10
2022-08-18T08:48:42.139Z,3.90
2022-08-18T08:51:20.534Z,3.83
2022-08-18T08:53:50.314Z,4.20
2022-08-18T08:56:18.928Z,3.83
2022-08-18T08:58:47.482Z,4.05
2022-08-18T09:01:24.606Z,4.00
2022-08-18T09:03:56.753Z,4.03
2022-08-18T09:06:30.188Z,4.00
2022-08-18T09:09:22.925Z,3.58
2022-08-18T09:12:04.676Z,3.90
2022-08-18T09:15:04.707Z,4.20
2022-08-18T09:18:12.872Z,3.67
2022-08-18T09:20:50.994Z,4.00
2022-08-18T09:23:21.086Z,3.55
2022-08-18T09:25:51.880Z,4.15
2022-08-18T09:28:20.767Z,3.80
2022-08-18T09:30:55.404Z,3.72
2022-08-18T09:33:30.018Z,3.80
2022-08-18T09:39:18.548Z,4.32
2022-08-18T09:41:50.628Z,4.40
2022-08-18T09:44:55.549Z,4.40
2022-08-18T09:48:00.545Z,3.85
2022-08-18T09:50:40.202Z,3.90
2022-08-18T09:53:32.559Z,3.85
2022-08-18T09:56:05.417Z,4.40
2022-08-18T09:58:56.593Z,4.13
2022-08-18T10:01:34.155Z,4.38
2022-08-18T10:04:32.052Z,5.30
2022-08-18T10:07:23.137Z,4.68
2022-08-18T10:10:12.790Z,39.38
2022-08-18T10:13:08.837Z,22.17
2022-08-18T10:15:48.824Z,17.95
2022-08-18T10:18:26.826Z,23.65
2022-08-18T10:21:00.200Z,22.38
2022-08-18T10:24:31.811Z,22.15
2022-08-18T10:27:13.175Z,19.83
2022-08-18T10:30:00.410Z,18.23
2022-08-18T10:32:52.083Z,16.80
2022-08-18T10:35:54.938Z,17.55
2022-08-18T10:38:25.695Z,17.05
2022-08-18T10:41:09.395Z,17.63
2022-08-18T10:43:55.249Z,13.70
2022-08-18T10:46:31.852Z,14.95
2022-08-18T10:49:04.467Z,12.82
2022-08-18T10:51:59.436Z,13.95
2022-08-18T10:54:35.023Z,12.45
2022-08-18T10:57:21.342Z,11.85
2022-08-18T10:59:54.428Z,10.93
2022-08-18T11:02:38.430Z,10.60
2022-08-18T11:05:06.652Z,10.60
2022-08-18T11:07:35.527Z,9.40
2022-08-18T11:10:32.744Z,9.77
2022-08-18T11:13:10.135Z,9.52
2022-08-18T11:15:44.026Z,8.52
2022-08-18T11:18:24.133Z,9.60
2022-08-18T11:20:52.284Z,9.70
2022-08-18T11:23:19.946Z,8.70
2022-08-18T11:28:38.953Z,8.02
2022-08-18T11:31:12.690Z,7.65
2022-08-18T11:33:42.541Z,7.00
2022-08-18T11:36:10.401Z,6.88
2022-08-18T11:38:39.455Z,7.25
2022-08-18T11:41:17.245Z,7.53
2022-08-18T11:43:47.440Z,7.05
2022-08-18T11:46:17.377Z,7.53
2022-08-18T11:48:53.957Z,6.35
2022-08-18T11:51:24.724Z,6.72
2022-08-18T11:53:58.673Z,6.38
2022-08-18T11:56:31.295Z,6.18
2022-08-18T11:59:00.435Z,6.47
2022-08-18T12:01:34.923Z,6.80
2022-08-18T12:04:16.624Z,6.72
2022-08-18T12:06:59.446Z,6.60
2022-08-18T12:12:22.229Z,5.72
2022-08-18T12:15:02.932Z,6.25
2022-08-18T12:17:40.509Z,6.15
2022-08-18T12:20:11.901Z,6.00
2022-08-18T12:22:40.582Z,6.15
2022-08-18T12:25:12.222Z,6.22
2022-08-18T12:27:40.128Z,6.15
2022-08-18T12:30:08.901Z,6.18
2022-08-18T12:32:50.357Z,6.03
2022-08-18T12:35:23.683Z,6.07
2022-08-18T12:38:04.937Z,5.90
2022-08-18T12:40:40.293Z,6.38
2022-08-18T12:43:08.016Z,6.07
2022-08-18T12:45:37.429Z,6.25
2022-08-18T12:48:06.855Z,6.82
2022-08-18T12:50:49.969Z,6.13
2022-08-18T12:53:30.623Z,6.25
2022-08-18T12:56:06.969Z,6.50
2022-08-18T12:58:36.586Z,6.47
2022-08-18T13:01:04.349Z,6.28
2022-08-18T13:03:35.251Z,6.25
2022-08-18T13:06:06.334Z,6.75
2022-08-18T13:08:47.755Z,6.28
2022-08-18T13:11:21.682Z,5.57
2022-08-18T13:13:56.081Z,6.20
2022-08-18T13:16:30.627Z,6.20
2022-08-18T13:19:06.962Z,5.95
2022-08-18T13:21:40.955Z,6.40
2022-08-18T13:24:09.457Z,5.97
2022-08-18T13:26:39.973Z,6.32
2022-08-18T13:29:10.018Z,6.45
2022-08-18T13:31:38.654Z,6.05
2022-08-18T13:34:11.602Z,6.22
2022-08-18T13:36:48.298Z,6.10
2022-08-18T13:39:17.471Z,6.68
2022-08-18T13:41:45.653Z,6.07
2022-08-18T13:44:18.549Z,6.40
2022-08-18T13:46:48.090Z,6.60
2022-08-18T13:49:15.944Z,6.72
2022-08-18T13:51:49.446Z,6.35
2022-08-18T13:54:30.904Z,6.32
2022-08-18T13:57:00.139Z,6.28
2022-08-18T13:59:31.549Z,6.82
2022-08-18T14:01:59.431Z,6.43
2022-08-18T14:04:28.331Z,6.45
2022-08-18T14:06:59.917Z,6.10
2022-08-18T14:09:37.640Z,6.43
2022-08-18T14:12:07.130Z,6.80
2022-08-18T14:14:44.103Z,6.43
2022-08-18T14:17:11.757Z,6.53
2022-08-18T14:19:56.793Z,6.55
2022-08-18T14:22:43.556Z,6.55
2022-08-18T14:25:28.909Z,6.32
2022-08-18T14:27:57.134Z,6.30
2022-08-18T14:30:25.030Z,5.85
2022-08-18T14:32:53.851Z,6.07
2022-08-18T14:35:33.765Z,6.35
2022-08-18T14:38:11.190Z,6.07
2022-08-18T14:40:41.882Z,6.55
2022-08-18T14:43:14.119Z,6.03
2022-08-18T14:45:48.935Z,6.30
2022-08-18T14:48:17.926Z,6.20
2022-08-18T14:50:49.154Z,6.43
2022-08-18T14:53:37.112Z,6.00
2022-08-18T14:56:28.483Z,6.40
2022-08-18T14:59:17.373Z,6.32
2022-08-18T15:01:47.043Z,6.28
2022-08-18T15:04:19.213Z,6.55
2022-08-18T15:06:56.644Z,6.45
2022-08-18T15:09:27.314Z,6.07
2022-08-18T15:11:56.761Z,6.43
2022-08-18T15:14:26.611Z,6.55
2022-08-18T15:17:00.981Z,6.60
2022-08-18T15:19:59.577Z,6.22
2022-08-18T15:22:33.742Z,6.80
2022-08-18T15:25:21.246Z,6.40
2022-08-18T15:27:52.380Z,6.32
2022-08-18T15:30:20.760Z,6.55
2022-08-18T15:32:49.725Z,6.95
2022-08-18T15:35:17.760Z,6.68
2022-08-18T15:37:51.163Z,6.65
2022-08-18T15:40:31.140Z,6.30
2022-08-18T15:43:03.908Z,6.65
2022-08-18T15:45:35.304Z,7.38
2022-08-18T15:48:03.637Z,6.15
2022-08-18T15:50:31.877Z,6.32
2022-08-18T15:53:00.900Z,6.70
2022-08-18T15:55:35.919Z,6.63
2022-08-18T15:58:10.836Z,6.90
2022-08-18T16:00:42.160Z,6.53
2022-08-18T16:03:12.009Z,7.30
2022-08-18T16:05:41.671Z,7.55
2022-08-18T16:08:11.753Z,7.90
2022-08-18T16:10:41.241Z,8.13
2022-08-18T16:13:08.913Z,7.40
2022-08-18T16:15:37.960Z,7.30
2022-08-18T16:18:06.717Z,7.47
2022-08-18T16:20:34.560Z,7.60
2022-08-18T16:23:02.240Z,8.68
2022-08-18T16:25:29.943Z,8.90
2022-08-18T16:28:00.323Z,8.50
2022-08-18T16:30:28.529Z,7.97
2022-08-18T16:32:57.810Z,8.43
2022-08-18T16:35:25.412Z,9.32
2022-08-18T16:37:53.137Z,8.20
2022-08-18T16:40:21.091Z,8.07
2022-08-18T16:42:49.165Z,7.43
2022-08-18T16:45:23.030Z,6.43
2022-08-18T16:47:50.727Z,6.00
2022-08-18T16:50:19.292Z,6.63
2022-08-18T16:52:46.919Z,4.53
2022-08-18T16:55:14.566Z,3.60
2022-08-18T16:58:00.132Z,3.15
2022-08-18T17:00:49.833Z,2.83
2022-08-18T17:03:40.322Z,2.70
2022-08-18T17:06:09.345Z,2.53
2022-08-18T17:08:37.113Z,2.33
2022-08-18T17:11:05.111Z,2.50
2022-08-18T17:13:32.847Z,2.13
2022-08-18T17:16:01.812Z,2.13
2022-08-18T17:18:30.304Z,2.15
2022-08-18T17:20:58.263Z,2.03
2022-08-18T17:23:27.342Z,2.08
2022-08-18T17:25:54.928Z,2.08
2022-08-18T17:28:25.868Z,1.60
2022-08-18T17:30:53.836Z,2.40
2022-08-18T17:33:24.770Z,1.50
2022-08-18T17:35:54.034Z,1.75
2022-08-18T17:38:24.865Z,1.45
2022-08-18T17:40:54.849Z,1.50
2022-08-18T17:43:23.125Z,1.30
2022-08-18T17:45:54.241Z,1.40
2022-08-18T17:48:24.924Z,1.45
2022-08-18T17:51:11.542Z,1.20
2022-08-18T17:53:39.326Z,1.10
2022-08-18T17:56:08.808Z,1.40
2022-08-18T17:58:40.278Z,1.42
2022-08-18T18:01:08.060Z,1.20
2022-08-18T18:03:37.097Z,1.13
2022-08-18T18:06:09.779Z,1.40
2022-08-18T18:08:55.652Z,1.30
2022-08-18T18:11:28.557Z,1.27
2022-08-18T18:13:56.161Z,1.20
2022-08-18T18:16:29.720Z,1.00
2022-08-18T18:19:01.698Z,1.33
2022-08-18T18:21:55.414Z,1.50
2022-08-18T18:24:24.128Z,1.58
2022-08-18T18:26:52.113Z,1.60
2022-08-18T18:29:21.799Z,1.70
2022-08-18T18:31:58.544Z,1.65
2022-08-18T18:34:30.728Z,1.58
2022-08-18T18:36:59.492Z,1.60
2022-08-18T18:39:33.075Z,1.90
2022-08-18T18:42:17.554Z,2.35
2022-08-18T18:44:51.537Z,2.35
2022-08-18T18:47:31.745Z,2.83
2022-08-18T18:50:04.281Z,2.85
2022-08-18T18:52:37.156Z,3.30
2022-08-18T18:55:06.605Z,3.53
2022-08-18T18:57:40.205Z,3.55
2022-08-18T19:00:18.228Z,4.20
2022-08-18T19:02:59.517Z,3.58
2022-08-18T19:05:34.433Z,3.83
2022-08-18T19:08:05.576Z,4.00
2022-08-18T19:10:36.435Z,3.90
2022-08-18T19:13:07.967Z,4.18
2022-08-18T19:15:38.373Z,3.92
2022-08-18T19:18:22.177Z,4.30
2022-08-18T19:22:01.721Z,4.55
2022-08-18T19:23:44.888Z,4.57
2022-08-18T19:26:15.529Z,4.07
2022-08-18T19:29:12.285Z,4.82
2022-08-18T19:31:36.313Z,4.43
2022-08-18T19:34:08.588Z,5.03
2022-08-18T19:36:43.894Z,5.38
2022-08-18T19:39:14.005Z,5.18
2022-08-18T19:41:47.188Z,5.03
2022-08-18T19:44:25.727Z,5.35
2022-08-18T19:46:54.392Z,5.03
2022-08-18T19:49:26.160Z,5.22
2022-08-18T19:51:56.853Z,4.93
2022-08-18T19:54:35.742Z,4.88
2022-08-18T19:57:13.781Z,4.90
2022-08-18T20:00:04.207Z,5.20
2022-08-18T20:02:35.545Z,5.40
2022-08-18T20:05:14.625Z,5.00
2022-08-18T20:07:57.344Z,5.07
2022-08-18T20:10:31.878Z,4.72
2022-08-18T20:13:21.288Z,4.57
2022-08-18T20:15:59.945Z,4.78
2022-08-18T20:18:35.406Z,4.72
2022-08-18T20:21:45.365Z,4.63
2022-08-18T20:24:38.312Z,4.22
2022-08-18T20:27:36.949Z,3.80
2022-08-18T20:30:32.734Z,3.97
2022-08-18T20:33:16.433Z,3.53
2022-08-18T20:35:47.346Z,3.80
2022-08-18T20:38:19.244Z,3.53
2022-08-18T20:40:49.867Z,3.22
2022-08-18T20:43:30.258Z,3.55
2022-08-18T20:46:06.801Z,3.17
2022-08-18T20:48:42.836Z,2.92
2022-08-18T20:51:11.288Z,3.38
2022-08-18T20:53:52.985Z,3.38
2022-08-18T20:56:31.954Z,3.30
2022-08-18T20:59:08.931Z,2.97
2022-08-18T21:01:36.792Z,3.00
2022-08-18T21:04:04.694Z,2.70
2022-08-18T21:06:36.085Z,2.97
2022-08-18T21:09:03.766Z,2.60
2022-08-18T21:11:37.234Z,2.42
2022-08-18T21:14:04.947Z,2.38
2022-08-18T21:16:40.583Z,2.58
2022-08-18T21:19:13.753Z,2.13
2022-08-18T21:21:42.584Z,2.00
2022-08-18T21:24:22.626Z,1.83
2022-08-18T21:26:51.649Z,2.35
2022-08-18T21:29:19.696Z,2.00
2022-08-18T21:31:47.829Z,1.98
2022-08-18T21:34:18.324Z,1.90
2022-08-18T21:36:50.369Z,2.05
2022-08-18T21:39:19.083Z,2.13
2022-08-18T21:41:52.541Z,2.35
2022-08-18T21:44:21.849Z,1.80
2022-08-18T21:46:49.793Z,2.22
2022-08-18T21:49:24.171Z,1.80
2022-08-18T21:51:52.151Z,1.90
2022-08-18T21:54:21.514Z,1.85
2022-08-18T21:56:49.214Z,2.00
2022-08-18T21:59:20.736Z,1.90
2022-08-18T22:01:49.459Z,2.10
2022-08-18T22:04:25.720Z,2.15
2022-08-18T22:06:54.617Z,2.25
2022-08-18T22:09:41.260Z,2.28
2022-08-18T22:12:46.266Z,2.00
2022-08-18T22:15:17.423Z,1.90
2022-08-18T22:17:52.466Z,2.20
2022-08-18T22:20:37.070Z,1.90
2022-08-18T22:23:28.533Z,2.25
2022-08-18T22:26:06.406Z,2.00
2022-08-18T22:28:34.193Z,2.05
2022-08-18T22:31:03.160Z,2.20
2022-08-18T22:33:30.836Z,2.30
2022-08-18T22:35:58.477Z,2.38
2022-08-18T22:38:26.164Z,2.30
2022-08-18T22:40:53.768Z,2.30
2022-08-18T22:43:21.893Z,2.13
2022-08-18T22:45:49.501Z,2.10
2022-08-18T22:48:18.505Z,2.45
2022-08-18T22:50:47.569Z,2.17
2022-08-18T22:53:15.232Z,2.40
2022-08-18T22:55:42.856Z,2.42
2022-08-18T22:58:10.713Z,2.50
2022-08-18T23:00:38.684Z,2.63
2022-08-18T23:03:08.617Z,2.60
2022-08-18T23:05:37.601Z,2.55
2022-08-18T23:08:05.656Z,2.85
2022-08-18T23:10:33.285Z,2.65
2022-08-18T23:13:04.401Z,2.72
2022-08-18T23:15:48.193Z,2.80
2022-08-18T23:18:19.034Z,3.17
2022-08-18T23:20:48.955Z,2.90
2022-08-18T23:23:17.086Z,2.88
2022-08-18T23:25:44.677Z,2.80
2022-08-18T23:28:12.410Z,2.75
2022-08-18T23:30:40.844Z,3.20
2022-08-18T23:33:10.415Z,3.08
2022-08-18T23:35:38.038Z,3.50
2022-08-18T23:38:07.902Z,3.00
2022-08-18T23:40:35.619Z,3.70
2022-08-18T23:43:03.277Z,3.42
2022-08-18T23:45:30.861Z,3.30
2022-08-18T23:47:58.460Z,3.55
2022-08-18T23:50:28.784Z,3.78
2022-08-18T23:52:57.257Z,3.80
2022-08-18T23:55:26.331Z,3.80
2022-08-18T23:57:53.957Z,3.70
